createdAt,value
2023-03-29T00:00:46.099Z,4.84
2023-03-29T00:01:46.111Z,4.90
2023-03-29T00:02:46.153Z,4.91
2023-03-29T00:03:46.158Z,4.84
2023-03-29T00:04:46.178Z,4.80
2023-03-29T00:05:46.137Z,4.88
2023-03-29T00:06:46.069Z,4.88
2023-03-29T00:07:46.056Z,4.80
2023-03-29T00:08:46.049Z,4.99
2023-03-29T00:09:46.149Z,4.90
2023-03-29T00:10:46.044Z,4.96
2023-03-29T00:11:46.095Z,5.02
2023-03-29T00:12:46.040Z,5.04
2023-03-29T00:13:46.021Z,4.93
2023-03-29T00:14:46.049Z,5.02
2023-03-29T00:15:46.024Z,4.91
2023-03-29T00:16:46.002Z,4.88
2023-03-29T00:17:46.063Z,5.06
2023-03-29T00:18:46.008Z,5.04
2023-03-29T00:19:45.976Z,4.97
2023-03-29T00:21:22.097Z,4.96
2023-03-29T00:21:45.966Z,5.02
2023-03-29T00:22:45.999Z,4.83
2023-03-29T00:23:46.019Z,4.86
2023-03-29T00:24:45.945Z,4.84
2023-03-29T00:25:45.932Z,4.80
2023-03-29T00:26:45.928Z,4.84
2023-03-29T00:27:45.897Z,4.84
2023-03-29T00:28:45.896Z,4.80
2023-03-29T00:29:45.929Z,4.74
2023-03-29T00:30:45.900Z,4.72
2023-03-29T00:31:46.037Z,4.74
2023-03-29T00:32:45.954Z,4.68
2023-03-29T00:33:45.871Z,4.64
2023-03-29T00:34:45.925Z,4.71
2023-03-29T00:35:45.955Z,4.72
2023-03-29T00:36:45.864Z,4.64
2023-03-29T00:37:45.867Z,4.62
2023-03-29T00:38:45.855Z,4.64
2023-03-29T00:39:45.834Z,4.74
2023-03-29T00:40:45.817Z,4.69
2023-03-29T00:41:45.868Z,4.79
2023-03-29T00:42:45.816Z,4.77
2023-03-29T00:43:45.791Z,4.71
2023-03-29T00:44:45.798Z,4.71
2023-03-29T00:45:45.820Z,4.69
2023-03-29T00:46:45.809Z,4.64
2023-03-29T00:47:46.310Z,4.67
2023-03-29T00:48:45.757Z,4.64
2023-03-29T00:49:45.786Z,4.61
2023-03-29T00:50:45.758Z,4.71
2023-03-29T00:51:45.769Z,4.72
2023-03-29T00:52:45.753Z,4.80
2023-03-29T00:53:45.799Z,4.75
2023-03-29T00:54:45.735Z,4.65
2023-03-29T00:55:45.752Z,4.68
2023-03-29T00:56:45.806Z,4.72
2023-03-29T00:57:45.706Z,4.68
2023-03-29T00:58:45.705Z,4.83
2023-03-29T00:59:45.729Z,4.86
2023-03-29T01:00:45.699Z,4.94
2023-03-29T01:01:45.738Z,4.86
2023-03-29T01:02:45.718Z,4.79
2023-03-29T01:03:45.743Z,4.86
2023-03-29T01:04:45.666Z,4.91
2023-03-29T01:05:45.698Z,4.99
2023-03-29T01:06:45.670Z,4.93
2023-03-29T01:07:45.637Z,4.90
2023-03-29T01:08:45.653Z,4.84
2023-03-29T01:09:45.622Z,4.87
2023-03-29T01:10:45.610Z,4.94
2023-03-29T01:11:45.648Z,4.90
2023-03-29T01:12:45.601Z,4.96
2023-03-29T01:13:45.618Z,5.01
2023-03-29T01:14:45.614Z,4.99
2023-03-29T01:15:45.587Z,4.87
2023-03-29T01:16:45.694Z,4.83
2023-03-29T01:17:45.647Z,4.91
2023-03-29T01:18:45.561Z,4.84
2023-03-29T01:19:45.550Z,4.91
2023-03-29T01:20:45.581Z,4.93
2023-03-29T01:21:45.543Z,4.80
2023-03-29T01:22:45.562Z,4.88
2023-03-29T01:23:45.581Z,4.94
2023-03-29T01:24:45.532Z,4.91
2023-03-29T01:25:45.574Z,4.91
2023-03-29T01:26:45.532Z,4.94
2023-03-29T01:27:45.507Z,4.90
2023-03-29T01:28:45.510Z,4.90
2023-03-29T01:29:45.570Z,4.88
2023-03-29T01:30:45.508Z,4.83
2023-03-29T01:31:45.598Z,4.88
2023-03-29T01:32:45.581Z,4.93
2023-03-29T01:33:45.518Z,4.86
2023-03-29T01:34:45.452Z,4.93
2023-03-29T01:35:45.587Z,4.94
2023-03-29T01:36:45.453Z,4.93
2023-03-29T01:37:45.444Z,4.96
2023-03-29T01:38:45.430Z,4.88
2023-03-29T01:39:45.444Z,4.86
2023-03-29T01:40:45.415Z,4.87
2023-03-29T01:41:45.437Z,4.88
2023-03-29T01:42:45.408Z,5.01
2023-03-29T01:43:45.394Z,4.91
2023-03-29T01:44:45.415Z,4.87
2023-03-29T01:45:45.442Z,4.80
2023-03-29T01:46:45.399Z,4.84
2023-03-29T01:47:45.413Z,4.91
2023-03-29T01:48:45.365Z,4.86
2023-03-29T01:49:45.389Z,4.88
2023-03-29T01:50:45.344Z,4.90
2023-03-29T01:51:45.357Z,4.86
2023-03-29T01:52:45.348Z,4.83
2023-03-29T01:53:45.749Z,4.88
2023-03-29T01:54:45.313Z,4.87
2023-03-29T01:55:45.312Z,4.83
2023-03-29T01:56:45.333Z,4.86
2023-03-29T01:57:45.312Z,4.75
2023-03-29T01:58:45.296Z,4.69
2023-03-29T01:59:45.348Z,4.74
2023-03-29T02:00:45.288Z,4.77
2023-03-29T02:01:45.336Z,4.68
2023-03-29T02:02:45.398Z,4.71
2023-03-29T02:03:45.334Z,4.61
2023-03-29T02:04:45.273Z,4.69
2023-03-29T02:05:45.310Z,4.67
2023-03-29T02:06:45.245Z,4.59
2023-03-29T02:07:45.234Z,4.62
2023-03-29T02:08:45.239Z,4.64
2023-03-29T02:09:45.228Z,4.65
2023-03-29T02:10:45.222Z,4.64
2023-03-29T02:11:45.273Z,4.71
2023-03-29T02:12:45.180Z,4.62
2023-03-29T02:13:45.204Z,4.80
2023-03-29T02:14:45.178Z,4.61
2023-03-29T02:15:45.227Z,4.59
2023-03-29T02:16:45.174Z,4.59
2023-03-29T02:17:45.220Z,4.57
2023-03-29T02:18:45.170Z,4.67
2023-03-29T02:19:45.136Z,4.69
2023-03-29T02:20:45.176Z,4.65
2023-03-29T02:21:45.120Z,4.75
2023-03-29T02:22:45.127Z,4.71
2023-03-29T02:24:31.207Z,4.62
2023-03-29T02:24:45.144Z,4.72
2023-03-29T02:26:05.748Z,4.72
2023-03-29T02:26:46.122Z,4.62
2023-03-29T02:27:45.099Z,4.65
2023-03-29T02:28:45.119Z,4.65
2023-03-29T02:29:45.106Z,4.69
2023-03-29T02:30:45.114Z,4.77
2023-03-29T02:31:45.164Z,4.72
2023-03-29T02:32:45.133Z,4.74
2023-03-29T02:33:45.044Z,4.71
2023-03-29T02:34:45.062Z,4.72
2023-03-29T02:35:45.154Z,4.72
2023-03-29T02:36:45.063Z,4.72
2023-03-29T02:37:45.014Z,4.69
2023-03-29T02:38:45.033Z,4.65
2023-03-29T02:39:45.029Z,4.67
2023-03-29T02:40:45.005Z,4.65
2023-03-29T02:41:45.008Z,4.75
2023-03-29T02:42:45.003Z,4.74
2023-03-29T02:43:45.001Z,4.75
2023-03-29T02:44:45.010Z,4.83
2023-03-29T02:45:44.979Z,4.79
2023-03-29T02:46:44.961Z,4.67
2023-03-29T02:47:45.069Z,4.69
2023-03-29T02:48:44.958Z,4.64
2023-03-29T02:49:44.939Z,4.62
2023-03-29T02:50:44.933Z,4.68
2023-03-29T02:51:44.915Z,4.56
2023-03-29T02:52:44.928Z,4.61
2023-03-29T02:53:44.968Z,4.62
2023-03-29T02:54:44.910Z,4.72
2023-03-29T02:55:44.907Z,4.71
2023-03-29T02:56:45.012Z,4.74
2023-03-29T02:57:44.893Z,4.64
2023-03-29T02:58:44.880Z,4.75
2023-03-29T02:59:44.957Z,4.83
2023-03-29T03:00:44.868Z,4.72
2023-03-29T03:01:44.988Z,4.72
2023-03-29T03:02:44.933Z,4.72
2023-03-29T03:03:44.942Z,4.84
2023-03-29T03:04:44.840Z,4.79
2023-03-29T03:05:44.869Z,4.88
2023-03-29T03:06:44.808Z,4.87
2023-03-29T03:07:44.792Z,4.91
2023-03-29T03:08:44.813Z,4.87
2023-03-29T03:09:44.792Z,4.90
2023-03-29T03:10:44.781Z,4.87
2023-03-29T03:11:44.879Z,4.88
2023-03-29T03:12:46.424Z,4.83
2023-03-29T03:13:44.778Z,4.80
2023-03-29T03:14:44.776Z,4.77
2023-03-29T03:15:44.755Z,4.74
2023-03-29T03:16:44.858Z,4.64
2023-03-29T03:17:44.827Z,4.65
2023-03-29T03:18:44.765Z,4.67
2023-03-29T03:19:44.776Z,4.61
2023-03-29T03:20:44.728Z,4.61
2023-03-29T03:21:44.731Z,4.69
2023-03-29T03:22:44.729Z,4.79
2023-03-29T03:23:44.739Z,4.80
2023-03-29T03:24:44.706Z,4.62
2023-03-29T03:25:44.693Z,4.77
2023-03-29T03:26:44.665Z,4.69
2023-03-29T03:27:44.676Z,4.54
2023-03-29T03:28:44.676Z,4.59
2023-03-29T03:29:44.693Z,4.59
2023-03-29T03:30:44.664Z,4.64
2023-03-29T03:31:44.807Z,4.62
2023-03-29T03:32:44.722Z,4.64
2023-03-29T03:33:44.611Z,4.56
2023-03-29T03:34:44.601Z,4.53
2023-03-29T03:35:44.674Z,4.56
2023-03-29T03:36:44.615Z,4.61
2023-03-29T03:37:44.624Z,4.67
2023-03-29T03:38:44.602Z,4.61
2023-03-29T03:39:44.595Z,4.64
2023-03-29T03:40:44.568Z,4.72
2023-03-29T03:41:44.611Z,4.71
2023-03-29T03:42:44.605Z,4.74
2023-03-29T03:43:44.565Z,4.79
2023-03-29T03:44:44.538Z,4.80
2023-03-29T03:45:44.540Z,4.79
2023-03-29T03:46:44.537Z,4.80
2023-03-29T03:47:44.612Z,4.84
2023-03-29T03:48:44.533Z,4.84
2023-03-29T03:49:50.748Z,4.74
2023-03-29T03:50:44.505Z,4.80
2023-03-29T03:51:44.480Z,4.83
2023-03-29T03:52:44.502Z,4.83
2023-03-29T03:53:44.530Z,4.91
2023-03-29T03:54:44.465Z,4.99
2023-03-29T03:55:44.485Z,4.90
2023-03-29T03:56:44.476Z,5.02
2023-03-29T03:57:44.442Z,5.01
2023-03-29T03:58:44.455Z,5.01
2023-03-29T03:59:44.829Z,4.90
2023-03-29T04:00:44.424Z,4.99
2023-03-29T04:01:44.458Z,4.88
2023-03-29T04:02:44.490Z,4.88
2023-03-29T04:03:44.474Z,4.96
2023-03-29T04:04:44.426Z,4.96
2023-03-29T04:05:44.442Z,4.91
2023-03-29T04:06:44.398Z,4.83
2023-03-29T04:07:44.409Z,4.87
2023-03-29T04:08:44.386Z,4.90
2023-03-29T04:09:44.359Z,4.88
2023-03-29T04:10:44.356Z,4.91
2023-03-29T04:11:44.405Z,4.84
2023-03-29T04:12:44.376Z,4.86
2023-03-29T04:13:44.339Z,4.87
2023-03-29T04:14:44.353Z,4.86
2023-03-29T04:15:44.355Z,4.80
2023-03-29T04:16:44.347Z,4.88
2023-03-29T04:17:44.429Z,4.91
2023-03-29T04:18:44.495Z,4.84
2023-03-29T04:19:44.298Z,4.77
2023-03-29T04:20:44.291Z,4.75
2023-03-29T04:21:44.298Z,4.77
2023-03-29T04:22:44.283Z,4.91
2023-03-29T04:23:44.300Z,4.87
2023-03-29T04:24:44.282Z,4.91
2023-03-29T04:25:44.269Z,4.83
2023-03-29T04:26:44.242Z,4.90
2023-03-29T04:27:44.268Z,4.96
2023-03-29T04:28:44.242Z,4.93
2023-03-29T04:29:44.268Z,4.83
2023-03-29T04:30:44.244Z,4.75
2023-03-29T04:31:44.244Z,4.87
2023-03-29T04:32:44.239Z,4.86
2023-03-29T04:33:44.212Z,4.93
2023-03-29T04:34:44.197Z,4.96
2023-03-29T04:35:44.275Z,4.91
2023-03-29T04:36:44.188Z,4.88
2023-03-29T04:37:44.168Z,4.80
2023-03-29T04:38:47.319Z,4.84
2023-03-29T04:39:44.160Z,4.77
2023-03-29T04:40:44.357Z,4.88
2023-03-29T04:41:44.199Z,4.84
2023-03-29T04:42:44.150Z,5.01
2023-03-29T04:43:44.163Z,4.93
2023-03-29T04:44:44.224Z,4.88
2023-03-29T04:45:44.131Z,4.97
2023-03-29T04:46:44.167Z,4.97
2023-03-29T04:47:44.212Z,4.97
2023-03-29T04:48:44.157Z,4.99
2023-03-29T04:49:44.147Z,5.04
2023-03-29T04:50:44.096Z,4.91
2023-03-29T04:51:44.166Z,5.02
2023-03-29T04:52:44.193Z,4.99
2023-03-29T04:53:44.168Z,4.91
2023-03-29T04:54:44.068Z,4.91
2023-03-29T04:55:44.047Z,5.08
2023-03-29T04:56:44.077Z,5.04
2023-03-29T04:57:44.033Z,5.01
2023-03-29T04:58:44.050Z,4.93
2023-03-29T04:59:44.065Z,4.90
2023-03-29T05:00:44.022Z,4.94
2023-03-29T05:01:44.125Z,4.97
2023-03-29T05:02:44.099Z,4.99
2023-03-29T05:03:44.060Z,4.97
2023-03-29T05:04:44.021Z,5.05
2023-03-29T05:05:44.388Z,5.02
2023-03-29T05:06:43.968Z,5.06
2023-03-29T05:07:43.970Z,4.99
2023-03-29T05:08:43.974Z,5.04
2023-03-29T05:09:43.972Z,5.04
2023-03-29T05:10:43.940Z,4.97
2023-03-29T05:11:43.972Z,5.06
2023-03-29T05:12:43.951Z,5.05
2023-03-29T05:13:43.953Z,5.02
2023-03-29T05:14:43.924Z,5.08
2023-03-29T05:15:43.912Z,5.04
2023-03-29T05:16:43.984Z,5.14
2023-03-29T05:17:43.984Z,5.11
2023-03-29T05:18:43.879Z,5.12
2023-03-29T05:19:43.884Z,5.08
2023-03-29T05:20:43.883Z,5.14
2023-03-29T05:21:45.475Z,5.09
2023-03-29T05:22:43.858Z,5.09
2023-03-29T05:23:43.929Z,5.14
2023-03-29T05:24:43.856Z,5.09
2023-03-29T05:25:43.860Z,5.22
2023-03-29T05:26:43.832Z,5.09
2023-03-29T05:27:43.842Z,5.08
2023-03-29T05:28:43.863Z,5.11
2023-03-29T05:29:43.859Z,5.22
2023-03-29T05:30:43.802Z,5.15
2023-03-29T05:31:43.882Z,5.26
2023-03-29T05:32:43.830Z,5.26
2023-03-29T05:33:43.805Z,5.22
2023-03-29T05:34:43.820Z,5.35
2023-03-29T05:35:43.836Z,5.29
2023-03-29T05:36:43.839Z,5.19
2023-03-29T05:37:43.748Z,5.20
2023-03-29T05:38:43.761Z,5.24
2023-03-29T05:39:43.727Z,5.22
2023-03-29T05:40:43.752Z,5.23
2023-03-29T05:41:43.763Z,5.20
2023-03-29T05:42:43.731Z,5.26
2023-03-29T05:43:43.713Z,5.19
2023-03-29T05:44:43.748Z,5.22
2023-03-29T05:45:43.754Z,5.24
2023-03-29T05:46:43.707Z,5.27
2023-03-29T05:47:43.775Z,5.20
2023-03-29T05:48:43.685Z,5.23
2023-03-29T05:49:43.683Z,5.19
2023-03-29T05:50:46.228Z,5.08
2023-03-29T05:51:43.657Z,5.14
2023-03-29T05:52:43.645Z,5.12
2023-03-29T05:53:43.698Z,5.08
2023-03-29T05:54:43.628Z,4.99
2023-03-29T05:55:43.649Z,5.06
2023-03-29T05:56:43.663Z,5.11
2023-03-29T05:57:43.634Z,5.24
2023-03-29T05:58:43.640Z,5.26
2023-03-29T05:59:43.645Z,5.27
2023-03-29T06:00:43.583Z,5.29
2023-03-29T06:01:43.597Z,5.23
2023-03-29T06:02:43.675Z,5.24
2023-03-29T06:03:43.684Z,5.24
2023-03-29T06:04:43.618Z,5.30
2023-03-29T06:05:43.610Z,5.40
2023-03-29T06:06:43.568Z,5.35
2023-03-29T06:07:43.551Z,5.49
2023-03-29T06:08:43.562Z,5.60
2023-03-29T06:09:43.564Z,5.52
2023-03-29T06:10:43.532Z,5.63
2023-03-29T06:11:43.778Z,5.65
2023-03-29T06:12:43.552Z,5.66
2023-03-29T06:13:43.520Z,5.70
2023-03-29T06:14:43.512Z,5.67
2023-03-29T06:15:43.508Z,5.67
2023-03-29T06:16:43.594Z,5.70
2023-03-29T06:17:43.582Z,5.77
2023-03-29T06:18:43.491Z,5.66
2023-03-29T06:19:43.478Z,5.67
2023-03-29T06:20:43.456Z,5.69
2023-03-29T06:21:43.457Z,5.69
2023-03-29T06:22:43.469Z,5.66
2023-03-29T06:23:43.484Z,5.77
2023-03-29T06:24:43.433Z,5.73
2023-03-29T06:25:43.426Z,5.70
2023-03-29T06:26:43.448Z,5.75
2023-03-29T06:27:43.406Z,5.77
2023-03-29T06:28:43.407Z,5.77
2023-03-29T06:29:43.459Z,5.84
2023-03-29T06:30:43.399Z,5.85
2023-03-29T06:31:43.414Z,5.85
2023-03-29T06:32:43.455Z,5.85
2023-03-29T06:33:43.379Z,5.95
2023-03-29T06:34:43.360Z,5.87
2023-03-29T06:35:43.404Z,5.95
2023-03-29T06:36:43.367Z,5.95
2023-03-29T06:37:43.383Z,5.96
2023-03-29T06:38:43.341Z,5.95
2023-03-29T06:39:43.355Z,6.02
2023-03-29T06:40:43.333Z,5.98
2023-03-29T06:41:43.338Z,6.01
2023-03-29T06:42:43.315Z,6.10
2023-03-29T06:43:43.293Z,6.06
2023-03-29T06:44:43.294Z,6.02
2023-03-29T06:45:43.288Z,6.08
2023-03-29T06:46:43.362Z,6.08
2023-03-29T06:47:43.402Z,6.11
2023-03-29T06:48:43.300Z,6.17
2023-03-29T06:49:43.250Z,6.19
2023-03-29T06:50:43.276Z,6.20
2023-03-29T06:51:43.241Z,6.25
2023-03-29T06:52:43.244Z,6.25
2023-03-29T06:53:43.295Z,6.21
2023-03-29T06:54:43.224Z,6.08
2023-03-29T06:55:43.265Z,6.13
2023-03-29T06:56:43.243Z,6.30
2023-03-29T06:57:43.235Z,6.25
2023-03-29T06:58:43.214Z,6.27
2023-03-29T06:59:43.233Z,6.33
2023-03-29T07:00:43.194Z,6.32
2023-03-29T07:01:43.260Z,6.19
2023-03-29T07:02:43.246Z,6.25
2023-03-29T07:03:44.767Z,6.28
2023-03-29T07:04:43.278Z,6.36
2023-03-29T07:05:43.182Z,6.28
2023-03-29T07:06:43.126Z,6.40
2023-03-29T07:07:43.137Z,6.32
2023-03-29T07:08:43.119Z,6.35
2023-03-29T07:09:43.120Z,6.19
2023-03-29T07:10:43.132Z,6.17
2023-03-29T07:11:43.483Z,6.35
2023-03-29T07:12:43.113Z,6.38
2023-03-29T07:13:43.121Z,6.36
2023-03-29T07:14:45.144Z,6.43
2023-03-29T07:15:43.063Z,6.43
2023-03-29T07:16:43.141Z,6.50
2023-03-29T07:17:43.403Z,6.46
2023-03-29T07:18:43.129Z,6.46
2023-03-29T07:19:43.048Z,6.39
2023-03-29T07:20:43.073Z,6.40
2023-03-29T07:21:43.030Z,6.39
2023-03-29T07:22:43.020Z,6.21
2023-03-29T07:23:43.089Z,6.42
2023-03-29T07:24:43.021Z,6.42
2023-03-29T07:25:43.030Z,6.54
2023-03-29T07:26:52.269Z,6.46
2023-03-29T07:27:44.006Z,6.36
2023-03-29T07:28:43.009Z,6.57
2023-03-29T07:29:42.997Z,6.46
2023-03-29T07:30:42.982Z,6.51
2023-03-29T07:31:42.995Z,6.51
2023-03-29T07:32:43.042Z,6.69
2023-03-29T07:33:43.146Z,6.65
2023-03-29T07:34:42.990Z,6.75
2023-03-29T07:35:42.986Z,6.83
2023-03-29T07:36:42.920Z,6.82
2023-03-29T07:37:43.055Z,6.89
2023-03-29T07:38:42.958Z,7.07
2023-03-29T07:39:42.901Z,7.16
2023-03-29T07:40:42.902Z,7.15
2023-03-29T07:41:42.921Z,7.37
2023-03-29T07:42:42.885Z,7.48
2023-03-29T07:43:42.878Z,7.34
2023-03-29T07:44:42.860Z,7.26
2023-03-29T07:45:42.847Z,7.36
2023-03-29T07:46:42.861Z,7.32
2023-03-29T07:47:42.888Z,7.34
2023-03-29T07:48:42.827Z,7.55
2023-03-29T07:49:42.823Z,7.66
2023-03-29T07:50:42.836Z,7.60
2023-03-29T07:51:42.828Z,7.62
2023-03-29T07:52:42.807Z,7.42
2023-03-29T07:53:42.871Z,7.42
2023-03-29T07:54:42.796Z,7.29
2023-03-29T07:55:44.642Z,7.18
2023-03-29T07:56:42.823Z,7.15
2023-03-29T07:57:42.765Z,7.16
2023-03-29T07:58:42.748Z,7.26
2023-03-29T07:59:42.778Z,7.44
2023-03-29T08:00:42.796Z,7.41
2023-03-29T08:01:42.724Z,7.39
2023-03-29T08:02:42.746Z,7.47
2023-03-29T08:03:42.815Z,7.47
2023-03-29T08:04:42.755Z,7.63
2023-03-29T08:05:42.820Z,7.70
2023-03-29T08:06:42.695Z,7.77
2023-03-29T08:07:42.684Z,7.66
2023-03-29T08:08:42.712Z,7.52
2023-03-29T08:09:42.651Z,7.45
2023-03-29T08:10:42.722Z,7.54
2023-03-29T08:11:42.694Z,7.60
2023-03-29T08:12:42.658Z,7.73
2023-03-29T08:13:42.658Z,7.81
2023-03-29T08:14:42.645Z,7.66
2023-03-29T08:15:42.637Z,7.66
2023-03-29T08:16:42.671Z,7.55
2023-03-29T08:17:42.686Z,7.48
2023-03-29T08:18:42.599Z,7.70
2023-03-29T08:19:50.822Z,7.69
2023-03-29T08:20:43.600Z,7.76
2023-03-29T08:21:42.584Z,7.81
2023-03-29T08:22:42.578Z,7.91
2023-03-29T08:23:42.998Z,7.81
2023-03-29T08:24:42.572Z,7.89
2023-03-29T08:25:42.585Z,7.95
2023-03-29T08:26:42.555Z,7.92
2023-03-29T08:27:42.551Z,8.06
2023-03-29T08:28:42.558Z,8.13
2023-03-29T08:29:42.582Z,8.21
2023-03-29T08:30:42.555Z,8.32
2023-03-29T08:31:42.523Z,8.54
2023-03-29T08:32:42.558Z,8.54
2023-03-29T08:33:42.521Z,8.58
2023-03-29T08:34:42.489Z,8.37
2023-03-29T08:35:42.553Z,8.39
2023-03-29T08:36:42.481Z,8.58
2023-03-29T08:37:42.478Z,8.50
2023-03-29T08:38:42.458Z,8.60
2023-03-29T08:39:42.529Z,8.58
2023-03-29T08:40:42.457Z,8.80
2023-03-29T08:41:42.549Z,8.89
2023-03-29T08:42:42.449Z,8.94
2023-03-29T08:43:42.438Z,8.79
2023-03-29T08:44:42.430Z,8.83
2023-03-29T08:45:42.423Z,8.98
2023-03-29T08:46:42.527Z,8.97
2023-03-29T08:47:42.576Z,9.01
2023-03-29T08:48:42.498Z,9.06
2023-03-29T08:49:42.406Z,8.85
2023-03-29T08:50:42.390Z,8.73
2023-03-29T08:51:42.399Z,8.89
2023-03-29T08:52:42.362Z,9.06
2023-03-29T08:53:42.389Z,9.27
2023-03-29T08:54:42.349Z,9.31
2023-03-29T08:55:42.364Z,9.34
2023-03-29T08:56:42.366Z,9.20
2023-03-29T08:57:42.326Z,9.12
2023-03-29T08:58:42.367Z,9.19
2023-03-29T08:59:42.367Z,9.17
2023-03-29T09:00:42.306Z,9.15
2023-03-29T09:01:42.321Z,9.35
2023-03-29T09:02:42.336Z,9.27
2023-03-29T09:03:42.341Z,9.17
2023-03-29T09:04:42.320Z,9.23
2023-03-29T09:05:42.306Z,9.45
2023-03-29T09:06:42.281Z,9.41
2023-03-29T09:07:42.272Z,9.23
2023-03-29T09:08:42.257Z,9.34
2023-03-29T09:09:42.247Z,9.58
2023-03-29T09:10:42.236Z,9.52
2023-03-29T09:11:42.267Z,9.58
2023-03-29T09:12:42.272Z,9.89
2023-03-29T09:13:42.283Z,9.78
2023-03-29T09:14:42.204Z,9.88
2023-03-29T09:15:42.225Z,9.75
2023-03-29T09:16:42.192Z,9.59
2023-03-29T09:17:42.271Z,9.27
2023-03-29T09:18:42.222Z,9.58
2023-03-29T09:19:42.194Z,9.67
2023-03-29T09:20:42.160Z,9.62
2023-03-29T09:21:42.694Z,9.71
2023-03-29T09:22:42.147Z,9.73
2023-03-29T09:23:42.604Z,9.73
2023-03-29T09:24:42.182Z,9.59
2023-03-29T09:25:52.591Z,9.68
2023-03-29T09:26:43.186Z,9.59
2023-03-29T09:27:42.128Z,9.48
2023-03-29T09:28:42.115Z,9.58
2023-03-29T09:29:42.181Z,9.83
2023-03-29T09:30:42.105Z,9.83
2023-03-29T09:31:42.148Z,9.98
2023-03-29T09:32:42.143Z,10.02
2023-03-29T09:33:42.079Z,9.92
2023-03-29T09:34:42.075Z,9.88
2023-03-29T09:35:42.136Z,10.01
2023-03-29T09:36:42.870Z,10.02
2023-03-29T09:37:42.055Z,10.10
2023-03-29T09:38:42.045Z,10.17
2023-03-29T09:39:42.019Z,10.26
2023-03-29T09:40:42.063Z,10.18
2023-03-29T09:41:42.046Z,10.13
2023-03-29T09:42:42.000Z,9.96
2023-03-29T09:43:42.018Z,9.88
2023-03-29T09:44:42.009Z,9.78
2023-03-29T09:45:42.021Z,9.86
2023-03-29T09:46:41.981Z,10.10
2023-03-29T09:47:42.127Z,10.14
2023-03-29T09:48:41.972Z,10.06
2023-03-29T09:49:41.969Z,10.16
2023-03-29T09:50:41.971Z,10.18
2023-03-29T09:51:41.944Z,10.46
2023-03-29T09:52:41.962Z,10.73
2023-03-29T09:53:41.976Z,10.78
2023-03-29T09:54:41.921Z,11.01
2023-03-29T09:55:41.939Z,11.01
2023-03-29T09:56:41.987Z,11.05
2023-03-29T09:57:41.898Z,10.98
2023-03-29T09:58:41.922Z,10.72
2023-03-29T09:59:41.946Z,10.70
2023-03-29T10:00:41.901Z,10.87
2023-03-29T10:01:41.922Z,10.87
2023-03-29T10:02:41.892Z,10.72
2023-03-29T10:03:41.911Z,10.70
2023-03-29T10:04:41.918Z,10.72
2023-03-29T10:05:41.940Z,10.55
2023-03-29T10:06:41.843Z,10.55
2023-03-29T10:07:41.839Z,10.75
2023-03-29T10:08:41.870Z,10.76
2023-03-29T10:09:41.837Z,10.84
2023-03-29T10:10:41.792Z,10.72
2023-03-29T10:11:41.849Z,10.75
2023-03-29T10:12:41.819Z,10.72
2023-03-29T10:13:41.851Z,10.65
2023-03-29T10:14:41.792Z,10.62
2023-03-29T10:15:41.791Z,10.81
2023-03-29T10:16:41.860Z,10.94
2023-03-29T10:17:41.812Z,11.09
2023-03-29T10:18:41.793Z,11.08
2023-03-29T10:19:41.812Z,10.75
2023-03-29T10:20:41.756Z,10.72
2023-03-29T10:21:41.750Z,10.75
2023-03-29T10:22:41.750Z,10.80
2023-03-29T10:23:41.778Z,10.60
2023-03-29T10:24:41.746Z,10.44
2023-03-29T10:25:42.798Z,10.68
2023-03-29T10:26:41.717Z,10.84
2023-03-29T10:27:41.705Z,10.90
2023-03-29T10:28:41.706Z,11.08
2023-03-29T10:29:41.919Z,11.19
2023-03-29T10:30:41.672Z,11.26
2023-03-29T10:31:41.753Z,11.23
2023-03-29T10:32:41.710Z,11.17
2023-03-29T10:33:41.657Z,11.02
2023-03-29T10:34:41.627Z,11.06
2023-03-29T10:35:41.791Z,11.31
2023-03-29T10:36:41.619Z,11.46
2023-03-29T10:37:41.611Z,11.72
2023-03-29T10:38:41.622Z,11.78
2023-03-29T10:39:41.681Z,11.57
2023-03-29T10:40:41.596Z,11.87
2023-03-29T10:41:41.641Z,11.82
2023-03-29T10:42:41.602Z,11.70
2023-03-29T10:43:41.573Z,11.88
2023-03-29T10:44:41.594Z,11.85
2023-03-29T10:45:41.568Z,11.82
2023-03-29T10:46:41.630Z,11.93
2023-03-29T10:47:41.611Z,11.81
2023-03-29T10:48:41.600Z,11.85
2023-03-29T10:49:41.551Z,11.96
2023-03-29T10:50:41.530Z,12.22
2023-03-29T10:51:41.501Z,12.67
2023-03-29T10:52:41.499Z,12.54
2023-03-29T10:53:41.574Z,12.59
2023-03-29T10:54:41.512Z,12.51
2023-03-29T10:55:41.464Z,12.58
2023-03-29T10:56:41.669Z,12.40
2023-03-29T10:57:41.465Z,12.34
2023-03-29T10:58:41.459Z,12.38
2023-03-29T10:59:41.592Z,12.52
2023-03-29T11:00:41.428Z,12.56
2023-03-29T11:01:41.518Z,12.01
2023-03-29T11:02:41.644Z,12.04
2023-03-29T11:03:41.546Z,12.31
2023-03-29T11:04:41.504Z,12.52
2023-03-29T11:05:41.539Z,12.67
2023-03-29T11:06:41.472Z,12.51
2023-03-29T11:07:42.479Z,12.29
2023-03-29T11:08:41.387Z,12.29
2023-03-29T11:09:41.442Z,12.41
2023-03-29T11:10:41.361Z,12.54
2023-03-29T11:11:41.438Z,12.54
2023-03-29T11:12:41.330Z,12.40
2023-03-29T11:13:41.399Z,12.44
2023-03-29T11:14:41.356Z,12.80
2023-03-29T11:15:41.371Z,12.98
2023-03-29T11:16:41.314Z,13.04
2023-03-29T11:17:41.410Z,12.92
2023-03-29T11:18:41.333Z,12.87
2023-03-29T11:19:41.371Z,13.03
2023-03-29T11:20:41.380Z,12.85
2023-03-29T11:21:41.288Z,12.66
2023-03-29T11:22:41.305Z,12.61
2023-03-29T11:23:41.331Z,12.79
2023-03-29T11:24:41.282Z,12.80
2023-03-29T11:25:41.348Z,13.09
2023-03-29T11:26:42.369Z,13.38
2023-03-29T11:27:41.340Z,13.36
2023-03-29T11:28:41.357Z,13.29
2023-03-29T11:29:41.519Z,13.24
2023-03-29T11:30:41.225Z,13.35
2023-03-29T11:31:41.328Z,13.39
2023-03-29T11:32:41.266Z,13.21
2023-03-29T11:33:41.268Z,13.17
2023-03-29T11:34:41.208Z,12.99
2023-03-29T11:35:41.412Z,12.69
2023-03-29T11:36:41.197Z,12.49
2023-03-29T11:37:41.189Z,12.44
2023-03-29T11:38:43.284Z,12.36
2023-03-29T11:39:41.209Z,12.34
2023-03-29T11:40:41.150Z,12.34
2023-03-29T11:41:41.236Z,12.16
2023-03-29T11:42:41.148Z,12.01
2023-03-29T11:43:41.143Z,11.88
2023-03-29T11:44:41.129Z,11.79
2023-03-29T11:45:41.144Z,11.98
2023-03-29T11:46:41.190Z,12.11
2023-03-29T11:47:41.316Z,12.12
2023-03-29T11:48:41.151Z,12.15
2023-03-29T11:49:41.111Z,12.19
2023-03-29T11:50:41.099Z,12.33
2023-03-29T11:51:41.069Z,12.48
2023-03-29T11:52:41.153Z,12.54
2023-03-29T11:53:41.127Z,12.37
2023-03-29T11:54:41.085Z,12.40
2023-03-29T11:55:41.088Z,12.36
2023-03-29T11:56:41.094Z,12.40
2023-03-29T11:57:41.117Z,12.52
2023-03-29T11:58:41.156Z,12.41
2023-03-29T11:59:41.187Z,12.40
2023-03-29T12:00:41.013Z,12.37
2023-03-29T12:01:41.016Z,12.29
2023-03-29T12:02:41.226Z,12.33
2023-03-29T12:03:41.100Z,12.21
2023-03-29T12:04:40.991Z,12.36
2023-03-29T12:05:41.039Z,12.52
2023-03-29T12:06:40.991Z,12.48
2023-03-29T12:07:40.965Z,12.52
2023-03-29T12:08:40.968Z,12.67
2023-03-29T12:09:40.990Z,12.44
2023-03-29T12:10:40.935Z,12.52
2023-03-29T12:11:40.965Z,12.55
2023-03-29T12:12:40.936Z,12.71
2023-03-29T12:13:40.939Z,13.01
2023-03-29T12:14:40.928Z,13.13
2023-03-29T12:15:40.908Z,13.24
2023-03-29T12:16:40.985Z,12.99
2023-03-29T12:17:40.992Z,13.32
2023-03-29T12:18:40.949Z,13.75
2023-03-29T12:19:43.576Z,13.99
2023-03-29T12:20:40.899Z,14.21
2023-03-29T12:21:40.865Z,14.61
2023-03-29T12:22:40.890Z,14.34
2023-03-29T12:23:41.068Z,14.57
2023-03-29T12:24:40.880Z,14.69
2023-03-29T12:25:40.895Z,15.05
2023-03-29T12:26:40.869Z,15.16
2023-03-29T12:27:40.874Z,15.25
2023-03-29T12:28:40.875Z,15.38
2023-03-29T12:29:40.892Z,15.34
2023-03-29T12:30:40.815Z,15.58
2023-03-29T12:31:40.872Z,15.91
2023-03-29T12:32:40.853Z,15.78
2023-03-29T12:33:40.829Z,16.01
2023-03-29T12:34:40.770Z,15.60
2023-03-29T12:35:41.282Z,15.16
2023-03-29T12:36:40.749Z,14.86
2023-03-29T12:37:40.813Z,14.66
2023-03-29T12:38:40.751Z,14.61
2023-03-29T12:39:40.750Z,14.24
2023-03-29T12:40:40.763Z,14.13
2023-03-29T12:41:40.815Z,14.09
2023-03-29T12:42:40.745Z,13.98
2023-03-29T12:43:40.757Z,13.63
2023-03-29T12:44:40.710Z,13.38
2023-03-29T12:45:40.792Z,13.44
2023-03-29T12:46:40.738Z,13.53
2023-03-29T12:47:40.743Z,13.62
2023-03-29T12:48:40.692Z,13.80
2023-03-29T12:49:40.700Z,13.94
2023-03-29T12:50:40.678Z,14.13
2023-03-29T12:51:40.672Z,13.84
2023-03-29T12:52:40.653Z,13.73
2023-03-29T12:53:40.693Z,13.91
2023-03-29T12:54:40.674Z,14.16
2023-03-29T12:55:40.615Z,13.72
2023-03-29T12:56:40.773Z,13.88
2023-03-29T12:57:40.641Z,14.13
2023-03-29T12:58:40.667Z,14.04
2023-03-29T12:59:40.701Z,14.20
2023-03-29T13:00:40.622Z,14.29
2023-03-29T13:01:40.640Z,14.34
2023-03-29T13:02:40.893Z,14.16
2023-03-29T13:03:40.571Z,14.20
2023-03-29T13:04:40.633Z,14.27
2023-03-29T13:05:40.721Z,14.35
2023-03-29T13:06:40.571Z,14.21
2023-03-29T13:07:40.555Z,14.23
2023-03-29T13:08:40.536Z,14.12
2023-03-29T13:09:40.546Z,14.08
2023-03-29T13:10:40.550Z,14.20
2023-03-29T13:11:40.654Z,14.27